Time;durP1;ratioP1;P1;durP2;ratioP2;P2;SDS_P1;SDS_P2;PMS_P1;PMS_P2;Temp;Humidity;BMP_temperature;BMP_pressure;BME280_temperature;BME280_humidity;BME280_pressure;Samples;Min_cycle;Max_cycle;Signal;HPM_P1;HPM_P2
2024/02/18 00:01:48;;;;;;;1.75;1.38;;;;;;;0.07;90.11;102117.59;5067188;28;20182;-66
2024/02/18 00:04:14;;;;;;;1.27;1.27;;;;;;;0.09;89.52;102108.38;5067185;28;20073;-64
2024/02/18 00:06:39;;;;;;;0.60;0.60;;;;;;;-0.01;89.97;102105.25;5066855;28;20358;-66
2024/02/18 00:09:05;;;;;;;1.27;1.17;;;;;;;0.02;90.05;102106.25;5066792;28;20295;-67
2024/02/18 00:11:31;;;;;;;1.08;0.90;;;;;;;0.04;89.96;102115.75;5066968;28;20021;-65
2024/02/18 00:13:56;;;;;;;0.60;0.60;;;;;;;-0.01;90.28;102104.34;5048697;28;20088;-65
2024/02/18 00:16:22;;;;;;;0.70;0.70;;;;;;;-0.09;90.39;102095.31;5049015;28;20020;-66
2024/02/18 00:18:47;;;;;;;1.52;0.85;;;;;;;0.03;90.49;102111.44;5066619;28;20175;-65
2024/02/18 00:21:17;;;;;;;0.52;0.52;;;;;;;0.02;90.40;102114.75;5067010;28;20021;-66
2024/02/18 00:23:43;;;;;;;1.77;1.58;;;;;;;-0.03;90.31;102104.25;5067126;28;20021;-65
2024/02/18 00:26:11;;;;;;;4.75;1.27;;;;;;;0.01;90.45;102115.56;5066904;28;20021;-66
2024/02/18 00:28:37;;;;;;;0.60;0.60;;;;;;;-0.01;90.70;102104.34;5066335;28;20055;-66
2024/02/18 00:31:02;;;;;;;1.08;1.08;;;;;;;0.01;91.17;102118.13;5066924;28;20031;-66
2024/02/18 00:33:28;;;;;;;0.95;0.93;;;;;;;0.04;91.16;102118.31;5066632;28;20499;-66
2024/02/18 00:35:53;;;;;;;0.50;0.50;;;;;;;0.06;91.03;102124.41;5066428;28;20031;-66
2024/02/18 00:38:18;;;;;;;1.02;0.98;;;;;;;0.04;91.91;102117.41;5066311;28;20028;-66
2024/02/18 00:40:44;;;;;;;1.17;1.17;;;;;;;0.09;91.35;102126.25;5048069;28;20060;-66
2024/02/18 00:43:09;;;;;;;0.60;0.60;;;;;;;0.15;91.25;102118.06;5066213;28;20024;-66
2024/02/18 00:45:34;;;;;;;0.90;0.90;;;;;;;0.11;91.20;102114.47;5066528;28;20108;-66
2024/02/18 00:48:00;;;;;;;0.70;0.70;;;;;;;0.17;90.82;102119.06;5066245;28;20083;-66
2024/02/18 00:50:25;;;;;;;0.80;0.80;;;;;;;0.19;90.89;102123.47;5066354;28;20032;-67
2024/02/18 00:52:50;;;;;;;0.50;0.50;;;;;;;0.20;90.74;102116.69;5066005;28;20032;-66
2024/02/18 00:55:16;;;;;;;0.88;0.88;;;;;;;0.24;89.72;102106.75;5066247;28;20052;-65
2024/02/18 00:57:41;;;;;;;2.05;0.85;;;;;;;0.29;89.88;102116.41;5065689;28;20035;-66
2024/02/18 01:00:08;;;;;;;0.68;0.68;;;;;;;0.35;90.25;102120.19;5066264;28;20078;-66
2024/02/18 01:02:33;;;;;;;0.63;0.63;;;;;;;0.34;90.32;102120.09;5066132;28;20398;-65
2024/02/18 01:04:59;;;;;;;0.68;0.68;;;;;;;0.42;90.42;102120.56;5065797;28;20049;-65
2024/02/18 01:07:25;;;;;;;0.50;0.50;;;;;;;0.40;90.63;102122.16;5066065;28;20044;-65
2024/02/18 01:09:50;;;;;;;0.95;0.88;;;;;;;0.30;90.08;102101.16;5065918;28;20445;-65
2024/02/18 01:12:16;;;;;;;0.50;0.50;;;;;;;0.40;89.72;102117.91;5065935;28;20021;-67
2024/02/18 01:14:43;;;;;;;0.95;0.95;;;;;;;0.33;89.57;102105.56;5066024;28;20064;-64
2024/02/18 01:17:36;;;;;;;0.50;0.50;;;;;;;0.32;89.17;102120.00;5047663;28;20040;-65
2024/02/18 01:20:02;;;;;;;0.63;0.63;;;;;;;0.27;89.34;102115.41;5065705;28;20108;-65
2024/02/18 01:22:27;;;;;;;0.93;0.93;;;;;;;0.25;89.68;102117.88;5065762;28;20025;-65
2024/02/18 01:24:53;;;;;;;1.05;0.90;;;;;;;0.23;89.89;102115.22;5047771;28;20060;-65
2024/02/18 01:27:18;;;;;;;0.60;0.60;;;;;;;0.22;89.89;102118.53;5047502;28;20064;-65
2024/02/18 01:29:43;;;;;;;1.25;1.25;;;;;;;0.20;89.96;102122.69;5065988;28;20031;-65
2024/02/18 01:32:09;;;;;;;1.20;1.15;;;;;;;0.18;90.21;102121.72;5047352;28;20020;-65
2024/02/18 01:34:34;;;;;;;0.93;0.88;;;;;;;0.15;90.80;102115.53;5065536;28;20079;-64
2024/02/18 01:36:59;;;;;;;2.05;1.95;;;;;;;0.19;91.10;102125.16;5065710;28;20024;-65
2024/02/18 01:39:26;;;;;;;0.63;0.60;;;;;;;0.14;91.29;102114.66;5065305;28;20382;-65
2024/02/18 01:41:51;;;;;;;1.17;0.63;;;;;;;0.23;91.57;102119.44;5065558;28;20024;-65
2024/02/18 01:44:17;;;;;;;0.68;0.68;;;;;;;0.23;91.29;102115.22;5065285;28;20071;-66
2024/02/18 01:46:43;;;;;;;0.68;0.68;;;;;;;0.23;91.34;102114.34;5047400;28;20028;-66
2024/02/18 01:49:09;;;;;;;0.52;0.52;;;;;;;0.22;91.43;102110.88;5065091;28;20028;-65
2024/02/18 01:51:35;;;;;;;0.75;0.75;;;;;;;0.20;91.52;102103.94;5047255;28;20021;-65
2024/02/18 01:54:01;;;;;;;0.75;0.75;;;;;;;0.17;91.29;102102.06;5065241;28;20025;-65
2024/02/18 01:56:26;;;;;;;0.60;0.60;;;;;;;0.19;90.92;102097.06;5065218;28;20098;-66
2024/02/18 01:58:52;;;;;;;0.60;0.60;;;;;;;0.15;90.40;102088.31;5064979;28;20467;-65
2024/02/18 02:01:18;;;;;;;0.70;0.70;;;;;;;0.18;90.01;102101.28;5065128;28;20029;-65
2024/02/18 02:03:45;;;;;;;0.57;0.57;;;;;;;0.14;90.11;102099.34;5046937;28;20025;-65
2024/02/18 02:06:13;;;;;;;2.15;1.65;;;;;;;0.08;90.05;102093.84;5064779;28;20053;-65
2024/02/18 02:08:39;;;;;;;0.70;0.70;;;;;;;0.05;90.51;102088.56;5064777;28;20025;-65
2024/02/18 02:11:04;;;;;;;1.05;0.80;;;;;;;0.06;89.94;102086.09;5064926;28;20025;-65
2024/02/18 02:13:30;;;;;;;3.15;1.10;;;;;;;0.04;89.74;102086.75;5064817;28;20025;-65
2024/02/18 02:15:55;;;;;;;0.60;0.60;;;;;;;0.01;89.40;102076.34;5046353;28;20032;-65
2024/02/18 02:18:20;;;;;;;1.35;1.25;;;;;;;-0.03;89.54;102075.28;5064961;28;20207;-65
2024/02/18 02:20:46;;;;;;;0.60;0.60;;;;;;;-0.14;89.81;102074.63;5065087;28;20029;-65
2024/02/18 02:23:11;;;;;;;0.73;0.73;;;;;;;-0.11;89.95;102077.34;5065017;28;20276;-65
2024/02/18 02:25:38;;;;;;;0.63;0.63;;;;;;;-0.16;90.01;102078.75;5046872;28;20497;-65
2024/02/18 02:28:16;;;;;;;0.70;0.70;;;;;;;-0.29;90.80;102066.88;5064414;28;20017;-65
2024/02/18 02:30:41;;;;;;;0.80;0.80;;;;;;;-0.23;91.16;102061.28;5064916;28;20020;-64
2024/02/18 02:33:08;;;;;;;1.05;1.05;;;;;;;-0.19;90.59;102053.03;5064930;28;20067;-65
2024/02/18 02:35:33;;;;;;;0.60;0.60;;;;;;;-0.26;90.37;102046.66;5046871;28;20025;-66
2024/02/18 02:37:59;;;;;;;0.50;0.50;;;;;;;-0.29;90.95;102046.47;5046254;28;20024;-66
2024/02/18 02:40:25;;;;;;;0.75;0.75;;;;;;;-0.31;90.90;102035.28;5046607;28;20041;-65
2024/02/18 02:42:51;;;;;;;1.33;1.23;;;;;;;-0.39;91.23;102035.69;5064572;28;20048;-65
2024/02/18 02:45:16;;;;;;;0.50;0.50;;;;;;;-0.35;91.54;102046.09;5064786;28;20476;-65
2024/02/18 02:47:42;;;;;;;1.58;1.48;;;;;;;-0.40;91.99;102045.78;5064542;28;20485;-65
2024/02/18 02:50:08;;;;;;;1.55;1.45;;;;;;;-0.40;92.32;102048.34;5064392;28;20025;-65
2024/02/18 02:52:33;;;;;;;0.90;0.90;;;;;;;-0.26;92.71;102049.22;5046634;28;20059;-65
2024/02/18 02:54:58;;;;;;;0.60;0.60;;;;;;;-0.28;93.04;102045.66;5064714;28;20099;-65
2024/02/18 02:57:24;;;;;;;1.65;1.33;;;;;;;-0.25;93.00;102040.75;5064585;28;20517;-65
2024/02/18 02:59:49;;;;;;;0.82;0.80;;;;;;;-0.21;93.42;102039.28;5064759;28;20067;-65
2024/02/18 03:02:15;;;;;;;0.70;0.70;;;;;;;-0.22;93.57;102027.31;5046519;28;20056;-66
2024/02/18 03:04:40;;;;;;;0.40;0.40;;;;;;;-0.18;93.72;102030.16;5064478;28;20029;-66
2024/02/18 03:07:05;;;;;;;2.85;2.65;;;;;;;-0.13;93.23;102038.09;5046535;28;20066;-66
2024/02/18 03:09:31;;;;;;;0.93;0.93;;;;;;;-0.32;93.23;102025.84;5064239;28;20025;-65
2024/02/18 03:11:56;;;;;;;0.70;0.70;;;;;;;-0.29;93.48;102034.56;5064465;28;20048;-66
2024/02/18 03:14:22;;;;;;;3.65;0.95;;;;;;;-0.33;93.88;102026.63;5046211;28;20393;-66
2024/02/18 03:16:47;;;;;;;0.52;0.52;;;;;;;-0.31;93.91;102020.84;5064304;28;20048;-66
2024/02/18 03:19:13;;;;;;;0.50;0.50;;;;;;;-0.13;94.09;102027.88;5064262;28;20029;-66
2024/02/18 03:21:38;;;;;;;0.50;0.50;;;;;;;-0.13;94.14;102018.53;5064312;28;20047;-66
2024/02/18 03:24:04;;;;;;;2.33;2.15;;;;;;;-0.15;93.85;102003.94;5064143;28;20033;-66
2024/02/18 03:26:29;;;;;;;1.45;1.05;;;;;;;-0.16;93.68;102008.13;5064241;28;20025;-63
2024/02/18 03:28:55;;;;;;;1.77;0.70;;;;;;;-0.13;93.46;102004.91;5066542;28;20619;-65
2024/02/18 03:31:21;;;;;;;0.50;0.50;;;;;;;-0.14;93.35;102005.69;5067934;28;20424;-66
2024/02/18 03:33:46;;;;;;;0.60;0.60;;;;;;;-0.09;93.10;102003.41;5067424;28;20609;-66
2024/02/18 03:36:12;;;;;;;0.60;0.60;;;;;;;-0.02;92.61;101988.56;5067594;28;20025;-65
2024/02/18 03:38:38;;;;;;;2.45;0.70;;;;;;;-0.12;92.51;101981.13;5067523;28;20029;-65
2024/02/18 03:41:06;;;;;;;0.80;0.80;;;;;;;-0.15;93.16;101981.84;5067458;28;20199;-66
2024/02/18 03:43:32;;;;;;;0.47;0.47;;;;;;;-0.05;92.57;101980.72;5066478;28;20017;-66
2024/02/18 03:45:57;;;;;;;1.02;1.02;;;;;;;-0.04;92.68;101959.50;5067701;28;20025;-66
2024/02/18 03:48:23;;;;;;;0.57;0.57;;;;;;;-0.14;92.87;101963.16;5067358;28;20029;-66
2024/02/18 03:50:48;;;;;;;0.60;0.60;;;;;;;0.08;92.21;101966.16;5049362;28;20074;-65
2024/02/18 03:53:23;;;;;;;0.50;0.50;;;;;;;0.01;92.30;101970.00;5067634;28;20024;-66
2024/02/18 03:55:49;;;;;;;0.85;0.85;;;;;;;0.03;92.59;101965.88;5066992;28;20024;-66
2024/02/18 03:58:14;;;;;;;0.60;0.60;;;;;;;0.10;92.19;101962.00;5067291;28;20051;-68
2024/02/18 04:00:45;;;;;;;0.52;0.52;;;;;;;0.14;91.73;101971.63;5067471;28;20025;-65
2024/02/18 04:03:11;;;;;;;0.70;0.70;;;;;;;-0.08;92.96;101972.00;5049343;28;20496;-65
2024/02/18 04:05:36;;;;;;;2.72;1.00;;;;;;;-0.17;93.66;101959.53;5049090;28;20032;-65
2024/02/18 04:08:02;;;;;;;1.95;1.00;;;;;;;-0.10;94.22;101965.91;5067089;28;20047;-65
2024/02/18 04:10:27;;;;;;;1.15;1.05;;;;;;;-0.18;94.24;101956.13;5049049;28;20491;-65
2024/02/18 04:12:52;;;;;;;1.38;1.35;;;;;;;-0.10;94.69;101974.47;5066902;28;20024;-65
2024/02/18 04:15:20;;;;;;;1.95;1.13;;;;;;;-0.14;94.92;101963.16;5067080;28;20025;-65
2024/02/18 04:17:45;;;;;;;0.60;0.60;;;;;;;0.01;94.70;101964.00;5066987;28;20025;-65
2024/02/18 04:20:11;;;;;;;0.70;0.70;;;;;;;0.01;94.18;101961.44;5067274;28;20082;-66
2024/02/18 04:22:36;;;;;;;1.23;1.15;;;;;;;0.03;94.25;101967.53;5049019;28;20025;-65
2024/02/18 04:25:02;;;;;;;0.98;0.98;;;;;;;0.11;93.72;101948.47;5048741;28;20035;-66
2024/02/18 04:27:27;;;;;;;0.50;0.50;;;;;;;0.06;92.87;101945.63;5048271;28;20021;-66
2024/02/18 04:29:53;;;;;;;1.88;1.17;;;;;;;0.05;93.00;101945.53;5048928;28;20013;-66
2024/02/18 04:32:18;;;;;;;0.60;0.60;;;;;;;0.07;93.29;101955.03;5066641;28;20075;-65
2024/02/18 04:35:03;;;;;;;0.80;0.80;;;;;;;0.09;93.10;101942.38;5066706;28;20029;-65
2024/02/18 04:37:28;;;;;;;0.50;0.50;;;;;;;0.09;93.02;101927.94;5066535;28;20025;-65
2024/02/18 04:39:54;;;;;;;0.70;0.70;;;;;;;0.13;92.67;101923.88;5066184;28;20041;-66
2024/02/18 04:42:19;;;;;;;0.75;0.75;;;;;;;0.11;93.01;101928.03;5066319;28;20021;-67
2024/02/18 04:44:45;;;;;;;0.77;0.77;;;;;;;0.06;93.26;101924.31;5066367;28;20033;-66
2024/02/18 04:47:10;;;;;;;0.85;0.85;;;;;;;0.15;92.98;101923.94;5066605;28;20029;-65
2024/02/18 04:49:35;;;;;;;1.30;1.20;;;;;;;0.17;92.93;101924.94;5065979;28;20025;-66
2024/02/18 04:52:01;;;;;;;1.15;0.60;;;;;;;0.15;93.22;101924.84;5048361;28;20025;-65
2024/02/18 04:54:27;;;;;;;0.98;0.98;;;;;;;0.26;92.59;101935.69;5048322;28;20051;-66
2024/02/18 04:56:52;;;;;;;0.90;0.90;;;;;;;0.22;93.04;101934.63;5048191;28;20021;-66
2024/02/18 04:59:17;;;;;;;0.70;0.70;;;;;;;0.20;93.33;101941.34;5065845;28;20021;-66
2024/02/18 05:05:06;;;;;;;0.70;0.70;;;;;;;0.26;93.40;101930.59;5066414;28;20040;-67
2024/02/18 05:07:31;;;;;;;0.57;0.57;;;;;;;0.19;93.57;101919.13;5066088;28;20099;-66
2024/02/18 05:09:57;;;;;;;1.38;1.27;;;;;;;0.21;94.06;101922.66;5065871;28;20389;-67
2024/02/18 05:15:46;;;;;;;1.05;1.05;;;;;;;0.33;93.12;101909.72;5065873;28;20055;-67
2024/02/18 05:18:33;;;;;;;1.05;1.05;;;;;;;0.36;92.98;101916.69;5065790;28;20032;-67
2024/02/18 05:21:01;;;;;;;1.63;1.52;;;;;;;0.34;92.97;101908.03;5065663;28;20025;-66
2024/02/18 05:23:26;;;;;;;0.73;0.73;;;;;;;0.25;93.52;101903.28;5065446;28;20505;-66
2024/02/18 05:25:51;;;;;;;1.00;0.77;;;;;;;0.20;93.73;101899.56;5065614;28;20044;-68
2024/02/18 05:28:17;;;;;;;1.80;1.70;;;;;;;0.26;93.57;101904.19;5065390;28;20052;-66
2024/02/18 05:30:43;;;;;;;2.15;1.05;;;;;;;0.33;92.96;101902.06;5047813;28;20029;-67
2024/02/18 05:33:08;;;;;;;1.30;1.30;;;;;;;0.35;92.64;101897.03;5065761;28;20032;-68
2024/02/18 05:35:34;;;;;;;0.50;0.50;;;;;;;0.47;91.89;101895.19;5065547;28;20025;-66
2024/02/18 05:37:59;;;;;;;0.50;0.50;;;;;;;0.37;92.60;101898.00;5064957;28;20024;-66
2024/02/18 05:40:24;;;;;;;0.70;0.70;;;;;;;0.39;92.40;101891.31;5064974;28;20559;-67
2024/02/18 05:42:49;;;;;;;2.70;1.52;;;;;;;0.28;92.37;101888.13;5065136;28;20025;-66
2024/02/18 05:45:20;;;;;;;0.65;0.65;;;;;;;0.41;92.27;101878.63;5065547;28;20040;-66
2024/02/18 05:47:46;;;;;;;0.63;0.63;;;;;;;0.47;91.43;101890.06;5065001;28;20024;-65
2024/02/18 05:50:11;;;;;;;0.73;0.73;;;;;;;0.37;91.88;101875.00;5046480;28;20277;-66
2024/02/18 05:52:37;;;;;;;0.77;0.77;;;;;;;0.46;91.62;101874.66;5065030;28;20109;-67
2024/02/18 05:55:02;;;;;;;2.05;1.95;;;;;;;0.54;91.62;101877.66;5047053;28;20025;-66
2024/02/18 05:57:27;;;;;;;1.02;1.00;;;;;;;0.43;92.02;101860.00;5064869;28;20100;-65
2024/02/18 05:59:53;;;;;;;0.63;0.63;;;;;;;0.56;91.38;101869.25;5064797;28;20029;-68
2024/02/18 06:02:18;;;;;;;0.90;0.90;;;;;;;0.49;91.10;101847.59;5065199;28;20081;-67
2024/02/18 06:04:44;;;;;;;0.50;0.50;;;;;;;0.59;90.50;101853.22;5046936;28;20024;-67
2024/02/18 06:07:09;;;;;;;0.70;0.70;;;;;;;0.51;91.20;101851.91;5065308;28;20025;-67
2024/02/18 06:09:35;;;;;;;0.70;0.70;;;;;;;0.62;90.44;101855.97;5064920;28;20432;-66
2024/02/18 06:12:00;;;;;;;0.95;0.95;;;;;;;0.57;90.49;101850.59;5064902;28;20029;-66
2024/02/18 06:14:25;;;;;;;1.58;1.42;;;;;;;0.65;90.61;101840.78;5064584;28;20029;-66
2024/02/18 06:16:51;;;;;;;0.60;0.60;;;;;;;0.70;89.43;101834.25;5047142;28;20068;-65
2024/02/18 06:19:16;;;;;;;0.60;0.60;;;;;;;0.59;89.95;101832.78;5064947;28;20029;-66
2024/02/18 06:21:41;;;;;;;2.13;1.98;;;;;;;0.70;89.47;101834.25;5046902;28;20017;-66
2024/02/18 06:24:07;;;;;;;1.08;1.08;;;;;;;0.64;89.49;101821.13;5046844;28;20029;-66
2024/02/18 06:26:33;;;;;;;0.50;0.50;;;;;;;0.64;89.45;101826.22;5064992;28;20021;-67
2024/02/18 06:28:58;;;;;;;1.35;1.30;;;;;;;0.66;89.22;101822.09;5064554;28;20567;-68
2024/02/18 06:31:23;;;;;;;0.50;0.50;;;;;;;0.72;88.75;101821.53;5064726;28;20025;-67
2024/02/18 06:33:49;;;;;;;0.60;0.60;;;;;;;0.67;88.95;101826.41;5064998;28;20044;-65
2024/02/18 06:36:15;;;;;;;0.98;0.95;;;;;;;0.75;88.76;101824.28;5046971;28;20036;-67
2024/02/18 06:38:44;;;;;;;4.18;0.90;;;;;;;0.81;88.56;101804.19;5064654;28;20021;-68
2024/02/18 06:41:10;;;;;;;5.57;1.02;;;;;;;0.73;88.49;101797.75;5046493;28;20052;-64
2024/02/18 06:43:36;;;;;;;0.75;0.75;;;;;;;0.79;88.22;101798.09;5064669;28;20465;-64
2024/02/18 06:46:01;;;;;;;1.00;1.00;;;;;;;0.69;88.81;101783.91;5064792;28;20051;-66
2024/02/18 06:48:27;;;;;;;0.52;0.52;;;;;;;0.92;87.73;101780.84;5064855;28;20036;-65
2024/02/18 06:50:52;;;;;;;1.77;1.35;;;;;;;0.84;87.34;101772.75;5064778;28;20039;-65
2024/02/18 06:53:18;;;;;;;6.47;1.85;;;;;;;0.90;86.75;101783.31;5064794;28;20025;-65
2024/02/18 06:55:44;;;;;;;5.95;1.50;;;;;;;0.84;86.81;101778.78;5064633;28;20035;-64
2024/02/18 06:58:11;;;;;;;0.50;0.50;;;;;;;0.77;87.50;101778.38;5046410;28;20017;-66
2024/02/18 07:00:36;;;;;;;0.50;0.50;;;;;;;0.95;86.75;101781.91;5064632;28;20025;-66
2024/02/18 07:03:03;;;;;;;0.50;0.50;;;;;;;0.91;86.88;101777.41;5068245;28;20025;-66
2024/02/18 07:05:29;;;;;;;0.60;0.60;;;;;;;0.77;87.50;101765.56;5068375;28;20389;-66
2024/02/18 07:07:54;;;;;;;0.60;0.60;;;;;;;0.91;86.75;101763.75;5050300;28;20017;-65
2024/02/18 07:10:19;;;;;;;0.50;0.50;;;;;;;0.83;86.83;101765.91;5050479;28;20021;-65
2024/02/18 07:12:45;;;;;;;1.13;1.13;;;;;;;0.93;86.77;101760.47;5067915;28;20024;-65
2024/02/18 07:15:10;;;;;;;0.95;0.73;;;;;;;0.90;86.39;101741.53;5068527;28;20024;-65
2024/02/18 07:17:36;;;;;;;0.55;0.55;;;;;;;1.03;85.40;101736.25;5050242;28;20024;-64
2024/02/18 07:20:01;;;;;;;0.65;0.65;;;;;;;1.07;84.37;101740.72;5068123;28;20025;-64
2024/02/18 07:22:27;;;;;;;0.82;0.82;;;;;;;0.90;85.75;101737.28;5068283;28;20024;-64
2024/02/18 07:24:52;;;;;;;0.65;0.65;;;;;;;0.89;85.78;101748.34;5049942;28;20112;-65
2024/02/18 07:27:18;;;;;;;0.50;0.50;;;;;;;1.05;84.83;101747.47;5067976;28;20020;-65
2024/02/18 07:30:17;;;;;;;0.60;0.60;;;;;;;1.10;84.42;101745.16;5067632;28;20485;-65
2024/02/18 07:32:42;;;;;;;1.02;1.02;;;;;;;1.09;84.14;101735.69;5067696;28;20028;-65
2024/02/18 07:35:08;;;;;;;0.60;0.60;;;;;;;1.03;84.47;101727.69;5067945;28;20052;-64
2024/02/18 07:37:33;;;;;;;3.80;0.80;;;;;;;0.94;84.77;101720.44;5067553;28;20025;-66
2024/02/18 07:39:58;;;;;;;0.90;0.90;;;;;;;1.02;84.36;101719.19;5067428;28;20408;-64
2024/02/18 07:42:25;;;;;;;0.60;0.60;;;;;;;1.09;84.09;101723.78;5068012;28;20044;-64
2024/02/18 07:44:51;;;;;;;0.50;0.50;;;;;;;1.08;83.99;101710.94;5067621;28;20506;-64
2024/02/18 07:47:16;;;;;;;0.50;0.50;;;;;;;1.18;83.79;101702.06;5049669;28;20029;-64
2024/02/18 07:49:42;;;;;;;0.70;0.70;;;;;;;1.12;83.87;101723.06;5067570;28;20032;-65
2024/02/18 07:52:07;;;;;;;0.60;0.60;;;;;;;1.17;83.43;101720.75;5049402;28;20025;-66
2024/02/18 07:54:33;;;;;;;2.70;1.58;;;;;;;1.08;84.13;101722.03;5049568;28;20021;-64
2024/02/18 07:56:58;;;;;;;0.98;0.98;;;;;;;1.17;83.86;101705.38;5067503;28;20059;-64
2024/02/18 07:59:23;;;;;;;0.50;0.50;;;;;;;1.24;83.52;101720.28;5066919;28;20085;-65
2024/02/18 08:01:49;;;;;;;0.60;0.60;;;;;;;1.18;84.23;101708.03;5067472;28;20044;-64
2024/02/18 08:04:15;;;;;;;0.55;0.55;;;;;;;1.32;83.61;101701.09;5049273;28;20485;-65
2024/02/18 08:06:40;;;;;;;0.60;0.60;;;;;;;1.27;84.00;101694.84;5067332;28;20149;-65
2024/02/18 08:09:07;;;;;;;0.63;0.63;;;;;;;1.21;84.05;101671.50;5049168;28;20013;-67
2024/02/18 08:11:32;;;;;;;0.98;0.98;;;;;;;1.36;82.79;101676.50;5049226;28;20028;-65
2024/02/18 08:13:57;;;;;;;0.60;0.60;;;;;;;1.29;83.57;101674.44;5066064;28;20025;-66
2024/02/18 08:16:26;;;;;;;0.50;0.50;;;;;;;1.28;83.49;101677.81;5049237;28;20028;-65
2024/02/18 08:19:01;;;;;;;1.08;0.98;;;;;;;1.40;83.25;101673.31;5048869;28;20031;-66
2024/02/18 08:21:27;;;;;;;0.50;0.50;;;;;;;1.29;83.26;101670.22;5067033;28;20021;-67
2024/02/18 08:23:53;;;;;;;1.38;1.38;;;;;;;1.46;82.41;101663.38;5049145;28;20031;-67
2024/02/18 08:26:25;;;;;;;0.55;0.55;;;;;;;1.35;82.54;101650.06;5049044;28;20056;-67
2024/02/18 08:28:52;;;;;;;9.35;0.95;;;;;;;1.31;82.95;101662.63;5048565;28;20017;-67
2024/02/18 08:31:17;;;;;;;0.70;0.70;;;;;;;1.46;82.64;101654.81;5065884;28;20037;-68
2024/02/18 08:33:44;;;;;;;0.55;0.55;;;;;;;1.39;82.80;101650.22;5047357;28;20021;-68
2024/02/18 08:36:10;;;;;;;1.27;1.23;;;;;;;1.39;82.55;101650.22;5047443;28;20037;-70
2024/02/18 08:38:35;;;;;;;0.50;0.50;;;;;;;1.36;82.59;101654.34;5065783;28;20020;-68
2024/02/18 08:41:02;;;;;;;0.50;0.50;;;;;;;1.36;82.84;101654.34;5048376;28;20049;-68
2024/02/18 08:43:27;;;;;;;1.02;1.02;;;;;;;1.30;83.05;101650.59;5048135;28;20028;-68
2024/02/18 08:45:52;;;;;;;0.50;0.50;;;;;;;1.27;83.41;101653.91;5066415;28;20052;-68
2024/02/18 08:48:18;;;;;;;0.60;0.60;;;;;;;1.43;82.50;101642.75;5066052;28;20025;-67
2024/02/18 08:50:43;;;;;;;0.63;0.63;;;;;;;1.23;83.58;101632.41;5066409;28;20047;-67
2024/02/18 08:53:08;;;;;;;0.50;0.50;;;;;;;1.30;83.75;101651.50;5066235;28;20021;-70
2024/02/18 08:55:35;;;;;;;0.50;0.50;;;;;;;1.41;83.18;101643.47;5066393;28;20029;-67
2024/02/18 08:58:00;;;;;;;0.50;0.50;;;;;;;1.27;83.92;101637.66;5065916;28;20025;-67
2024/02/18 09:00:26;;;;;;;0.50;0.50;;;;;;;1.37;83.46;101639.91;5066122;28;20077;-68
2024/02/18 09:02:51;;;;;;;0.50;0.50;;;;;;;1.36;83.24;101640.69;5066018;28;20504;-67
2024/02/18 09:05:17;;;;;;;0.50;0.50;;;;;;;1.27;83.29;101627.44;5066220;28;20040;-67
2024/02/18 09:07:43;;;;;;;0.60;0.60;;;;;;;1.32;83.54;101634.56;5047908;28;20483;-68
2024/02/18 09:10:09;;;;;;;0.50;0.50;;;;;;;1.29;83.90;101638.63;5047965;28;20055;-68
2024/02/18 09:12:34;;;;;;;0.75;0.75;;;;;;;1.43;83.12;101624.84;5048123;28;20021;-68
2024/02/18 09:14:59;;;;;;;0.80;0.80;;;;;;;1.47;82.52;101624.16;5065880;28;20470;-68
2024/02/18 09:17:24;;;;;;;0.50;0.50;;;;;;;1.48;82.49;101627.63;5065908;28;20100;-68
2024/02/18 09:19:50;;;;;;;0.65;0.65;;;;;;;1.44;82.98;101639.38;5065468;28;20074;-69
2024/02/18 09:22:15;;;;;;;0.63;0.63;;;;;;;1.43;82.84;101627.41;5065726;28;20031;-68
2024/02/18 09:24:44;;;;;;;0.60;0.60;;;;;;;1.40;83.11;101642.59;5047712;28;20036;-68
2024/02/18 09:27:09;;;;;;;0.50;0.50;;;;;;;1.61;81.96;101626.53;5065869;28;20025;-70
2024/02/18 09:29:35;;;;;;;0.50;0.50;;;;;;;1.69;81.11;101620.09;5065373;28;20021;-68
2024/02/18 09:32:00;;;;;;;1.05;1.05;;;;;;;1.55;81.63;101616.00;5065752;28;20039;-68
2024/02/18 09:34:25;;;;;;;0.77;0.65;;;;;;;1.42;82.31;101615.38;5065536;28;20078;-68
2024/02/18 09:36:51;;;;;;;0.55;0.55;;;;;;;1.52;82.16;101618.41;5065647;28;20388;-68
2024/02/18 09:39:16;;;;;;;1.23;1.23;;;;;;;1.51;81.74;101599.63;5065213;28;20033;-68
2024/02/18 20:58:26;;;;;;;0.40;0.40;;;;;;;4.12;100.00;100495.28;5065681;28;20051;-68
2024/02/18 21:00:51;;;;;;;0.40;0.40;;;;;;;4.16;100.00;100494.50;5065811;28;20053;-68
2024/02/18 21:03:19;;;;;;;0.40;0.40;;;;;;;4.16;100.00;100494.50;5048040;28;20088;-69
2024/02/18 21:05:44;;;;;;;0.40;0.40;;;;;;;4.17;100.00;100488.53;5066036;28;20028;-68
2024/02/18 21:08:09;;;;;;;0.40;0.40;;;;;;;4.18;100.00;100494.53;5065754;28;20033;-69
2024/02/18 21:10:35;;;;;;;0.40;0.40;;;;;;;4.24;100.00;100491.22;5065941;28;20029;-67
2024/02/18 21:13:01;;;;;;;0.40;0.40;;;;;;;4.24;100.00;100486.94;5065832;28;20436;-67
2024/02/18 21:15:27;;;;;;;0.40;0.40;;;;;;;4.31;100.00;100482.78;5065684;28;20031;-68
2024/02/18 21:17:52;;;;;;;0.40;0.40;;;;;;;4.34;100.00;100488.00;5065736;28;20052;-67
2024/02/18 21:20:18;;;;;;;0.50;0.50;;;;;;;4.39;100.00;100491.53;5065300;28;20323;-67
2024/02/18 21:22:44;;;;;;;0.40;0.40;;;;;;;4.39;100.00;100483.81;5065613;28;20017;-66
2024/02/18 21:25:09;;;;;;;0.40;0.40;;;;;;;4.35;100.00;100474.28;5047821;28;20020;-68
2024/02/18 21:27:34;;;;;;;0.40;0.40;;;;;;;4.39;100.00;100476.09;5047669;28;20035;-68
2024/02/18 21:30:00;;;;;;;0.40;0.40;;;;;;;4.41;100.00;100478.69;5065202;28;20091;-68
2024/02/18 21:32:25;;;;;;;0.40;0.40;;;;;;;4.45;100.00;100476.22;5047483;28;20055;-67
2024/02/18 21:34:50;;;;;;;0.40;0.40;;;;;;;4.45;100.00;100468.50;5065396;28;20025;-67
2024/02/18 21:37:16;;;;;;;0.40;0.40;;;;;;;4.46;100.00;100466.78;5065260;28;20025;-67
2024/02/18 21:39:41;;;;;;;0.50;0.50;;;;;;;4.43;100.00;100467.59;5065128;28;20025;-67
2024/02/18 21:42:06;;;;;;;0.40;0.40;;;;;;;4.46;100.00;100472.78;5047246;28;20025;-68
2024/02/18 21:44:32;;;;;;;0.40;0.40;;;;;;;4.48;100.00;100470.25;5065130;28;20065;-67
2024/02/18 21:46:58;;;;;;;0.40;0.40;;;;;;;4.46;100.00;100462.50;5065134;28;20078;-67
2024/02/18 21:49:23;;;;;;;0.40;0.40;;;;;;;4.46;100.00;100465.06;5065233;28;20024;-67
2024/02/18 21:51:48;;;;;;;0.50;0.50;;;;;;;4.45;100.00;100467.63;5064972;28;20024;-67
2024/02/18 21:54:15;;;;;;;0.40;0.40;;;;;;;4.44;100.00;100463.31;5047183;28;20039;-68
2024/02/18 21:56:40;;;;;;;0.40;0.40;;;;;;;4.43;100.00;100467.59;5064858;28;20060;-69
2024/02/18 21:59:06;;;;;;;0.40;0.40;;;;;;;4.46;100.00;100465.06;5047124;28;20044;-74
2024/02/18 22:01:31;;;;;;;0.40;0.40;;;;;;;4.49;100.00;100465.97;5065091;28;20052;-70
2024/02/18 22:03:57;;;;;;;0.40;0.40;;;;;;;4.51;100.00;100465.16;5065159;28;20052;-70
2024/02/18 22:06:23;;;;;;;0.40;0.40;;;;;;;4.49;100.00;100463.41;5064923;28;20028;-69
2024/02/18 22:08:48;;;;;;;0.40;0.40;;;;;;;4.52;100.00;100460.88;5064903;28;20031;-69
2024/02/18 22:11:14;;;;;;;0.40;0.40;;;;;;;4.49;100.00;100451.41;5064827;28;20143;-70
2024/02/18 22:13:39;;;;;;;0.40;0.40;;;;;;;4.47;100.00;100459.06;5064754;28;20025;-69
2024/02/18 22:16:04;;;;;;;0.40;0.40;;;;;;;4.45;100.00;100449.63;5065014;28;20110;-69
2024/02/18 22:18:31;;;;;;;0.40;0.40;;;;;;;4.44;100.00;100443.59;5046868;28;20032;-71
2024/02/18 22:20:57;;;;;;;0.40;0.40;;;;;;;4.45;100.00;100450.50;5046675;28;20046;-70
2024/02/18 22:23:22;;;;;;;0.40;0.40;;;;;;;4.46;100.00;100459.94;5046978;28;20028;-69
2024/02/18 22:25:47;;;;;;;0.40;0.40;;;;;;;4.41;100.00;100433.28;5064697;28;20036;-72
2024/02/18 22:28:12;;;;;;;0.50;0.50;;;;;;;4.47;100.00;100442.81;5046433;28;20013;-69
2024/02/18 22:30:38;;;;;;;0.50;0.50;;;;;;;4.46;100.00;100447.06;5064457;28;20017;-69
2024/02/18 22:33:04;;;;;;;0.40;0.40;;;;;;;4.46;100.00;100441.94;5066840;28;20029;-69
2024/02/18 22:35:29;;;;;;;0.40;0.40;;;;;;;4.46;100.00;100441.94;5069131;28;20029;-69
2024/02/18 22:37:54;;;;;;;0.40;0.40;;;;;;;4.44;100.00;100438.47;5068806;28;20021;-69
2024/02/18 22:40:20;;;;;;;0.40;0.40;;;;;;;4.44;100.00;100430.75;5069104;28;20098;-71
2024/02/18 22:42:45;;;;;;;0.40;0.40;;;;;;;4.43;100.00;100431.59;5068610;28;20028;-70
2024/02/18 22:45:10;;;;;;;0.40;0.40;;;;;;;4.40;100.00;100425.53;5068473;28;20029;-70
2024/02/18 22:47:36;;;;;;;0.40;0.40;;;;;;;4.42;100.00;100426.44;5068749;28;20025;-69
2024/02/18 22:50:01;;;;;;;0.40;0.40;;;;;;;4.41;100.00;100422.97;5068630;28;20021;-69